»·PEaware :: N55TJ KVNY-KSAN

N55TJ :: KVNY-KSAN

FLIGHT INFORMATION

Flight Status: Arrived
Operator: Privately registered:
United States
More flights under this callsign
Pilot: Nate M. (12976)
Aircraft: ECLIPSE 500
(EA50)
More flights by this aircraft type
Origin: KVNY Van Nuys
United States
Destination: KSAN San Diego Intl-Lindbergh
United States
More flights between these airports :: More routes between these airports
Route: +TWINE V518 KIMMO V459 SLI SLI171 LAX118 CARDI MZB320 MZB
File this flight plan on PilotEdge
Remarks: BURN31
Altitude:
(Current/Filed)
11,000ft
Speed:
(Current/Filed)
350kts
Departed: 05-Oct-17 02:14 PM
Arrived: 05-Oct-17 02:49 PM
Distance/Time
Traveled:
110nm/0:34
Distance/Time
To Go:
Arrived

Flight Plot

Page will automatically refresh every two minutes.


Map Options




Map Legend


Flown Route
Filed Route
Departure Airport
Arrival Airport
Navaid (VOR, NDB)
Fix

Horizontal Profiles

Position Reports

Time Latitude Longitude Heading Altitude Ground
Speed
05-Oct-17 13:48 34.204276 -118.493219 137 806ft 0kts
05-Oct-17 13:49 34.204276 -118.493219 137 806ft 0kts
05-Oct-17 13:50 34.204276 -118.493219 137 806ft 0kts
05-Oct-17 13:51 34.204276 -118.493219 137 806ft 0kts
05-Oct-17 13:52 34.204276 -118.493219 137 806ft 0kts
05-Oct-17 13:53 34.204276 -118.493219 137 806ft 0kts
05-Oct-17 13:54 34.204276 -118.493219 137 806ft 0kts
05-Oct-17 13:55 34.204276 -118.493219 137 806ft 0kts
05-Oct-17 13:56 34.204276 -118.493219 137 806ft 0kts
05-Oct-17 13:57 34.204276 -118.493219 137 806ft 0kts
05-Oct-17 13:58 34.204276 -118.493219 137 806ft 0kts
05-Oct-17 13:59 34.204276 -118.493219 137 806ft 0kts
05-Oct-17 14:00 34.204276 -118.493219 137 806ft 0kts
05-Oct-17 14:01 34.204276 -118.493219 137 806ft 0kts
05-Oct-17 14:02 34.204276 -118.493219 137 806ft 0kts
05-Oct-17 14:03 34.204276 -118.493219 137 806ft 0kts
05-Oct-17 14:04 34.204276 -118.493219 137 806ft 0kts
05-Oct-17 14:05 34.204276 -118.493219 137 806ft 0kts
05-Oct-17 14:06 34.204276 -118.493219 137 806ft 0kts
05-Oct-17 14:07 34.204276 -118.493219 137 806ft 0kts
05-Oct-17 14:08 34.204276 -118.493219 137 806ft 0kts
05-Oct-17 14:09 34.204276 -118.493219 137 806ft 0kts
05-Oct-17 14:10 34.204276 -118.493219 137 806ft 0kts
05-Oct-17 14:11 34.204276 -118.493219 137 806ft 0kts
05-Oct-17 14:12 34.204276 -118.493219 137 806ft 0kts
05-Oct-17 14:13 34.204275 -118.493218 137 806ft 0kts
05-Oct-17 14:14 34.210266 -118.491795 354 805ft 18kts
05-Oct-17 14:15 34.215558 -118.492243 354 806ft 22kts
05-Oct-17 14:16 34.218799 -118.492054 88 805ft 0kts
05-Oct-17 14:17 34.218799 -118.492054 88 805ft 0kts
05-Oct-17 14:18 34.194932 -118.490586 182 1411ft 217kts
05-Oct-17 14:19 34.147504 -118.457973 121 3867ft 213kts
05-Oct-17 14:20 34.168887 -118.413394 353 4696ft 221kts
05-Oct-17 14:21 34.226526 -118.421637 352 6450ft 215kts
05-Oct-17 14:22 34.285749 -118.429394 352 8240ft 216kts
05-Oct-17 14:23 34.322976 -118.392666 113 10226ft 246kts
05-Oct-17 14:24 34.271887 -118.316980 136 11024ft 348kts
05-Oct-17 14:25 34.229608 -118.299342 186 11019ft 358kts
05-Oct-17 14:26 34.171304 -118.302323 163 11009ft 374kts
05-Oct-17 14:27 34.100060 -118.237674 156 11026ft 372kts
05-Oct-17 14:28 34.012008 -118.186570 156 11027ft 367kts
05-Oct-17 14:29 33.926432 -118.137202 156 11005ft 367kts
05-Oct-17 14:30 33.841743 -118.088480 156 10997ft 366kts
05-Oct-17 14:31 33.749247 -118.061302 186 10955ft 357kts
05-Oct-17 14:32 33.651101 -118.067871 179 10951ft 357kts
05-Oct-17 14:33 33.593645 -118.033522 143 10954ft 367kts
05-Oct-17 14:34 33.520139 -117.948133 134 10955ft 369kts
05-Oct-17 14:35 33.453357 -117.858277 133 10952ft 369kts
05-Oct-17 14:36 33.386574 -117.765849 132 11006ft 368kts
05-Oct-17 14:37 33.319406 -117.672980 132 11006ft 369kts
05-Oct-17 14:38 33.252132 -117.580174 132 11001ft 369kts
05-Oct-17 14:39 33.184758 -117.487465 132 11007ft 369kts
05-Oct-17 14:40 33.109412 -117.407727 156 10704ft 371kts
05-Oct-17 14:41 33.051523 -117.374988 156 9901ft 362kts
05-Oct-17 14:42 32.983262 -117.336862 156 8715ft 336kts
05-Oct-17 14:43 32.899537 -117.290330 157 7071ft 250kts
05-Oct-17 14:44 32.848444 -117.262028 157 7017ft 209kts
05-Oct-17 14:45 32.837650 -117.256105 158 7018ft 200kts
05-Oct-17 14:46 32.805886 -117.238658 158 7023ft 187kts
05-Oct-17 14:47 32.770018 -117.215133 123 7028ft 199kts
05-Oct-17 14:48 32.769209 -117.139163 91 5086ft 257kts
05-Oct-17 14:49 32.764067 -117.061293 126 3448ft 242kts
05-Oct-17 14:50 32.729787 -117.101214 255 2141ft 194kts
05-Oct-17 14:51 32.723920 -117.146602 277 1051ft 110kts
05-Oct-17 14:52 32.731386 -117.180697 284 54ft 99kts
05-Oct-17 14:53 32.734558 -117.190847 37 21ft 17kts
05-Oct-17 14:54 32.734486 -117.188211 103 21ft 18kts
05-Oct-17 14:55 32.732570 -117.178312 103 22ft 0kts
05-Oct-17 14:56 32.732570 -117.178312 103 22ft 0kts
05-Oct-17 14:57 32.732570 -117.178312 103 22ft 0kts
05-Oct-17 14:58 32.736526 -117.184984 354 24ft 0kts
05-Oct-17 14:59 32.736526 -117.184984 354 24ft 0kts
05-Oct-17 15:00 32.736526 -117.184984 354 24ft 0kts
05-Oct-17 15:01 32.736526 -117.184984 354 24ft 0kts
05-Oct-17 15:02 32.736526 -117.184984 354 24ft 0kts
05-Oct-17 15:03 32.736526 -117.184984 354 24ft 0kts
05-Oct-17 15:04 32.736526 -117.184984 354 24ft 0kts
05-Oct-17 15:05 32.736526 -117.184984 354 24ft 0kts
05-Oct-17 15:06 32.736526 -117.184984 354 24ft 0kts
05-Oct-17 15:07 32.736526 -117.184984 354 24ft 0kts

Navigation Log

Ident Type
1. KVNY Airport
2. TWINE Fix
3. LANGE Fix
4. KIMMO Fix
5. BERRI Fix
6. DARTS Fix
7. DODGR Fix
8. SLI Navaid
9. CARDI Fix
10. MZB Navaid
11. KSAN Airport